sensor_id;sensor_type;location;lat;lon;timestamp;pressure;altitude;pressure_sealevel;temperature;humidity
43838;BME280;65998;46.256;7.534;2023-05-01T00:00:46;86852.88;;;15.06;47.39
43838;BME280;65998;46.256;7.534;2023-05-01T00:03:14;86845.25;;;15.07;47.37
43838;BME280;65998;46.256;7.534;2023-05-01T00:05:40;86846.03;;;15.03;47.47
43838;BME280;65998;46.256;7.534;2023-05-01T00:08:06;86846.72;;;15.04;47.44
43838;BME280;65998;46.256;7.534;2023-05-01T00:10:34;86845.94;;;15.07;47.50
43838;BME280;65998;46.256;7.534;2023-05-01T00:13:00;86843.28;;;15.03;47.40
43838;BME280;65998;46.256;7.534;2023-05-01T00:15:26;86837.75;;;15.03;47.48
43838;BME280;65998;46.256;7.534;2023-05-01T00:17:52;86839.09;;;15.04;47.50
43838;BME280;65998;46.256;7.534;2023-05-01T00:20:18;86836.38;;;15.02;47.44
43838;BME280;65998;46.256;7.534;2023-05-01T00:22:44;86837.06;;;15.02;47.44
43838;BME280;65998;46.256;7.534;2023-05-01T00:25:10;86837.06;;;15.02;47.54
43838;BME280;65998;46.256;7.534;2023-05-01T00:27:36;86839.22;;;15.00;47.46
43838;BME280;65998;46.256;7.534;2023-05-01T00:30:02;86836.44;;;15.00;47.47
43838;BME280;65998;46.256;7.534;2023-05-01T00:32:28;86835.78;;;14.99;47.42
43838;BME280;65998;46.256;7.534;2023-05-01T00:34:54;86837.81;;;15.01;47.49
43838;BME280;65998;46.256;7.534;2023-05-01T00:37:20;86836.50;;;14.98;47.51
43838;BME280;65998;46.256;7.534;2023-05-01T00:39:46;86838.59;;;14.97;47.59
43838;BME280;65998;46.256;7.534;2023-05-01T00:42:12;86835.81;;;14.97;47.54
43838;BME280;65998;46.256;7.534;2023-05-01T00:44:37;86834.47;;;14.96;47.42
43838;BME280;65998;46.256;7.534;2023-05-01T00:47:03;86824.09;;;14.97;47.66
43838;BME280;65998;46.256;7.534;2023-05-01T00:49:29;86828.25;;;14.96;47.54
43838;BME280;65998;46.256;7.534;2023-05-01T00:51:56;86837.97;;;14.95;47.53
43838;BME280;65998;46.256;7.534;2023-05-01T00:54:21;86830.41;;;14.93;47.62
43838;BME280;65998;46.256;7.534;2023-05-01T00:56:48;86833.78;;;14.96;47.42
43838;BME280;65998;46.256;7.534;2023-05-01T00:59:15;86829.06;;;14.92;47.61
43838;BME280;65998;46.256;7.534;2023-05-01T01:01:41;86829.72;;;14.93;47.62
43838;BME280;65998;46.256;7.534;2023-05-01T01:04:07;86826.28;;;14.92;47.50
43838;BME280;65998;46.256;7.534;2023-05-01T01:14:57;86821.38;;;14.95;47.35
43838;BME280;65998;46.256;7.534;2023-05-01T01:17:31;86815.91;;;14.93;47.62
43838;BME280;65998;46.256;7.534;2023-05-01T01:26:21;86811.72;;;14.94;47.44
43838;BME280;65998;46.256;7.534;2023-05-01T01:31:41;86814.53;;;14.92;47.59
43838;BME280;65998;46.256;7.534;2023-05-01T01:34:19;86815.97;;;14.91;47.49
43838;BME280;65998;46.256;7.534;2023-05-01T01:37:12;86821.50;;;14.91;47.54
43838;BME280;65998;46.256;7.534;2023-05-01T01:40:01;86812.50;;;14.90;47.45
43838;BME280;65998;46.256;7.534;2023-05-01T01:42:33;86816.75;;;14.87;47.71
43838;BME280;65998;46.256;7.534;2023-05-01T01:45:04;86813.97;;;14.87;47.61
43838;BME280;65998;46.256;7.534;2023-05-01T01:47:33;86813.31;;;14.87;47.57
43838;BME280;65998;46.256;7.534;2023-05-01T01:50:03;86817.47;;;14.86;47.73
43838;BME280;65998;46.256;7.534;2023-05-01T01:52:34;86816.81;;;14.85;47.63
43838;BME280;65998;46.256;7.534;2023-05-01T01:55:07;86811.94;;;14.86;47.73
43838;BME280;65998;46.256;7.534;2023-05-01T01:57:35;86815.44;;;14.84;47.61
43838;BME280;65998;46.256;7.534;2023-05-01T02:00:02;86807.94;;;14.81;47.67
43838;BME280;65998;46.256;7.534;2023-05-01T02:02:29;86812.75;;;14.82;47.73
43838;BME280;65998;46.256;7.534;2023-05-01T02:04:56;86809.34;;;14.80;47.63
43838;BME280;65998;46.256;7.534;2023-05-01T02:07:23;86807.88;;;14.83;47.75
43838;BME280;65998;46.256;7.534;2023-05-01T02:09:51;86807.22;;;14.82;47.69
43838;BME280;65998;46.256;7.534;2023-05-01T02:12:17;86810.03;;;14.80;47.68
43838;BME280;65998;46.256;7.534;2023-05-01T02:14:44;86807.22;;;14.82;47.70
43838;BME280;65998;46.256;7.534;2023-05-01T02:17:13;86800.25;;;14.83;47.60
43838;BME280;65998;46.256;7.534;2023-05-01T02:19:40;86798.28;;;14.80;47.76
43838;BME280;65998;46.256;7.534;2023-05-01T02:22:08;86799.03;;;14.78;47.68
43838;BME280;65998;46.256;7.534;2023-05-01T02:24:36;86790.72;;;14.78;47.62
43838;BME280;65998;46.256;7.534;2023-05-01T02:27:07;86789.31;;;14.79;47.76
43838;BME280;65998;46.256;7.534;2023-05-01T02:29:35;86795.69;;;14.74;47.81
43838;BME280;65998;46.256;7.534;2023-05-01T02:32:01;86798.47;;;14.74;47.68
43838;BME280;65998;46.256;7.534;2023-05-01T02:34:27;86789.50;;;14.73;47.78
43838;BME280;65998;46.256;7.534;2023-05-01T02:36:52;86793.66;;;14.72;47.75
43838;BME280;65998;46.256;7.534;2023-05-01T02:39:18;86799.19;;;14.72;47.65
43838;BME280;65998;46.256;7.534;2023-05-01T02:41:45;86789.50;;;14.73;47.66
43838;BME280;65998;46.256;7.534;2023-05-01T02:44:13;86791.56;;;14.73;47.77
43838;BME280;65998;46.256;7.534;2023-05-01T02:46:42;86789.50;;;14.73;47.79
43838;BME280;65998;46.256;7.534;2023-05-01T02:49:11;86788.06;;;14.74;47.71
43838;BME280;65998;46.256;7.534;2023-05-01T02:51:37;86795.06;;;14.71;47.74
43838;BME280;65998;46.256;7.534;2023-05-01T02:54:04;86793.72;;;14.70;47.74
43838;BME280;65998;46.256;7.534;2023-05-01T02:56:30;86790.28;;;14.69;47.69
43838;BME280;65998;46.256;7.534;2023-05-01T02:58:56;86790.34;;;14.67;47.91
43838;BME280;65998;46.256;7.534;2023-05-01T03:01:22;86788.25;;;14.68;47.76
43838;BME280;65998;46.256;7.534;2023-05-01T03:03:48;86785.53;;;14.66;47.71
43838;BME280;65998;46.256;7.534;2023-05-01T03:06:14;86777.91;;;14.66;47.76
43838;BME280;65998;46.256;7.534;2023-05-01T03:08:40;86777.25;;;14.66;47.74
43838;BME280;65998;46.256;7.534;2023-05-01T03:11:06;86779.88;;;14.70;47.84
43838;BME280;65998;46.256;7.534;2023-05-01T03:13:33;86780.69;;;14.66;47.76
43838;BME280;65998;46.256;7.534;2023-05-01T03:15:59;86775.88;;;14.65;47.74
43838;BME280;65998;46.256;7.534;2023-05-01T03:18:25;86777.97;;;14.64;47.86
43838;BME280;65998;46.256;7.534;2023-05-01T03:20:54;86774.34;;;14.70;47.81
43838;BME280;65998;46.256;7.534;2023-05-01T03:23:20;86774.53;;;14.64;47.86
43838;BME280;65998;46.256;7.534;2023-05-01T03:25:46;86764.88;;;14.63;47.83
43838;BME280;65998;46.256;7.534;2023-05-01T03:28:12;86770.41;;;14.63;47.75
43838;BME280;65998;46.256;7.534;2023-05-01T03:30:37;86770.41;;;14.63;47.80
43838;BME280;65998;46.256;7.534;2023-05-01T03:33:03;86766.28;;;14.62;47.80
43838;BME280;65998;46.256;7.534;2023-05-01T03:35:29;86765.63;;;14.61;47.74
43838;BME280;65998;46.256;7.534;2023-05-01T03:37:55;86760.81;;;14.60;47.77
43838;BME280;65998;46.256;7.534;2023-05-01T03:40:21;86764.25;;;14.60;47.73
43838;BME280;65998;46.256;7.534;2023-05-01T03:42:47;86766.34;;;14.60;47.93
43838;BME280;65998;46.256;7.534;2023-05-01T03:45:12;86759.47;;;14.59;47.79
43838;BME280;65998;46.256;7.534;2023-05-01T03:47:38;86765.00;;;14.59;47.77
43838;BME280;65998;46.256;7.534;2023-05-01T03:50:04;86756.69;;;14.59;47.72
43838;BME280;65998;46.256;7.534;2023-05-01T03:52:30;86759.53;;;14.57;47.85
43838;BME280;65998;46.256;7.534;2023-05-01T03:54:56;86754.66;;;14.57;47.90
43838;BME280;65998;46.256;7.534;2023-05-01T03:57:22;86756.06;;;14.56;47.70
43838;BME280;65998;46.256;7.534;2023-05-01T03:59:48;86753.94;;;14.59;47.83
43838;BME280;65998;46.256;7.534;2023-05-01T04:02:14;86758.16;;;14.56;47.83
43838;BME280;65998;46.256;7.534;2023-05-01T04:04:40;86760.22;;;14.55;47.83
43838;BME280;65998;46.256;7.534;2023-05-01T04:07:06;86758.16;;;14.56;47.73
43838;BME280;65998;46.256;7.534;2023-05-01T04:09:32;86754.03;;;14.55;47.77
43838;BME280;65998;46.256;7.534;2023-05-01T04:11:58;86755.44;;;14.54;47.85
43838;BME280;65998;46.256;7.534;2023-05-01T04:14:23;86754.75;;;14.53;47.86
43838;BME280;65998;46.256;7.534;2023-05-01T04:16:49;86756.84;;;14.53;47.75
43838;BME280;65998;46.256;7.534;2023-05-01T04:19:15;86756.84;;;14.53;47.88
43838;BME280;65998;46.256;7.534;2023-05-01T04:21:41;86757.56;;;14.51;47.81
43838;BME280;65998;46.256;7.534;2023-05-01T04:24:07;86756.91;;;14.51;47.94
43838;BME280;65998;46.256;7.534;2023-05-01T04:26:33;86762.44;;;14.51;47.81
43838;BME280;65998;46.256;7.534;2023-05-01T04:28:58;86763.84;;;14.50;47.75
43838;BME280;65998;46.256;7.534;2023-05-01T04:31:25;86765.94;;;14.49;47.84
43838;BME280;65998;46.256;7.534;2023-05-01T04:33:50;86766.59;;;14.50;47.79
43838;BME280;65998;46.256;7.534;2023-05-01T04:36:17;86763.91;;;14.48;47.84
43838;BME280;65998;46.256;7.534;2023-05-01T04:38:43;86770.09;;;14.48;47.78
43838;BME280;65998;46.256;7.534;2023-05-01T04:41:09;86772.19;;;14.48;47.81
43838;BME280;65998;46.256;7.534;2023-05-01T04:43:34;86770.84;;;14.47;47.84
43838;BME280;65998;46.256;7.534;2023-05-01T04:46:02;86765.94;;;14.49;47.81
43838;BME280;65998;46.256;7.534;2023-05-01T04:48:28;86771.50;;;14.47;47.87
43838;BME280;65998;46.256;7.534;2023-05-01T04:50:54;86770.84;;;14.47;47.87
43838;BME280;65998;46.256;7.534;2023-05-01T04:53:19;86771.56;;;14.45;47.72
43838;BME280;65998;46.256;7.534;2023-05-01T04:55:46;86768.75;;;14.47;47.99
43838;BME280;65998;46.256;7.534;2023-05-01T04:58:12;86768.81;;;14.45;47.76
43838;BME280;65998;46.256;7.534;2023-05-01T05:00:38;86771.56;;;14.45;47.87
43838;BME280;65998;46.256;7.534;2023-05-01T05:03:03;86772.97;;;14.44;47.94
43838;BME280;65998;46.256;7.534;2023-05-01T05:05:29;86773.66;;;14.45;47.77
43838;BME280;65998;46.256;7.534;2023-05-01T05:07:55;86775.06;;;14.44;47.93
43838;BME280;65998;46.256;7.534;2023-05-01T05:10:21;86781.31;;;14.42;47.81
43838;BME280;65998;46.256;7.534;2023-05-01T05:12:47;86775.81;;;14.42;47.90
43838;BME280;65998;46.256;7.534;2023-05-01T05:15:13;86773.06;;;14.40;47.81
43838;BME280;65998;46.256;7.534;2023-05-01T05:17:38;86779.94;;;14.41;47.90
43838;BME280;65998;46.256;7.534;2023-05-01T05:20:05;86780.63;;;14.42;47.90
43838;BME280;65998;46.256;7.534;2023-05-01T05:22:34;86788.22;;;14.43;47.81
43838;BME280;65998;46.256;7.534;2023-05-01T05:25:00;86786.22;;;14.39;47.96
43838;BME280;65998;46.256;7.534;2023-05-01T05:27:26;86786.94;;;14.38;47.85
43838;BME280;65998;46.256;7.534;2023-05-01T05:29:52;86786.25;;;14.37;47.85
43838;BME280;65998;46.256;7.534;2023-05-01T05:32:18;86783.50;;;14.37;47.94
43838;BME280;65998;46.256;7.534;2023-05-01T05:34:43;86788.34;;;14.37;47.96
43838;BME280;65998;46.256;7.534;2023-05-01T05:37:09;86784.22;;;14.36;47.99
43838;BME280;65998;46.256;7.534;2023-05-01T05:39:35;86791.84;;;14.35;48.01
43838;BME280;65998;46.256;7.534;2023-05-01T05:42:01;86796.69;;;14.35;47.95
43838;BME280;65998;46.256;7.534;2023-05-01T05:44:27;86784.28;;;14.34;47.92
43838;BME280;65998;46.256;7.534;2023-05-01T05:46:52;86794.66;;;14.33;47.96
43838;BME280;65998;46.256;7.534;2023-05-01T05:49:18;86791.22;;;14.33;47.85
43838;BME280;65998;46.256;7.534;2023-05-01T05:51:44;86794.00;;;14.33;47.91
43838;BME280;65998;46.256;7.534;2023-05-01T05:54:10;86797.47;;;14.31;47.94
43838;BME280;65998;46.256;7.534;2023-05-01T05:56:36;86793.38;;;14.30;47.95
43838;BME280;65998;46.256;7.534;2023-05-01T05:59:01;86803.00;;;14.31;47.67
43838;BME280;65998;46.256;7.534;2023-05-01T06:01:27;86800.97;;;14.30;47.96
43838;BME280;65998;46.256;7.534;2023-05-01T06:03:53;86794.78;;;14.29;47.89
43838;BME280;65998;46.256;7.534;2023-05-01T06:06:19;86798.22;;;14.30;47.71
43838;BME280;65998;46.256;7.534;2023-05-01T06:08:45;86800.97;;;14.30;47.83
43838;BME280;65998;46.256;7.534;2023-05-01T06:11:11;86800.31;;;14.29;47.82
43838;BME280;65998;46.256;7.534;2023-05-01T06:13:37;86798.94;;;14.28;48.03
43838;BME280;65998;46.256;7.534;2023-05-01T06:16:03;86803.06;;;14.29;47.92
43838;BME280;65998;46.256;7.534;2023-05-01T06:18:29;86796.22;;;14.26;47.93
43838;BME280;65998;46.256;7.534;2023-05-01T06:20:55;86804.53;;;14.26;47.93
43838;BME280;65998;46.256;7.534;2023-05-01T06:23:21;86802.50;;;14.25;47.88
43838;BME280;65998;46.256;7.534;2023-05-01T06:25:46;86799.06;;;14.24;47.87
43838;BME280;65998;46.256;7.534;2023-05-01T06:28:12;86804.56;;;14.24;47.91
43838;BME280;65998;46.256;7.534;2023-05-01T06:30:38;86795.59;;;14.24;48.01
43838;BME280;65998;46.256;7.534;2023-05-01T06:33:04;86803.91;;;14.24;47.92
43838;BME280;65998;46.256;7.534;2023-05-01T06:35:30;86797.69;;;14.23;47.83
43838;BME280;65998;46.256;7.534;2023-05-01T06:37:55;86802.53;;;14.23;47.96
43838;BME280;65998;46.256;7.534;2023-05-01T06:40:21;86796.34;;;14.22;47.89
43838;BME280;65998;46.256;7.534;2023-05-01T06:42:47;86801.88;;;14.22;47.94
43838;BME280;65998;46.256;7.534;2023-05-01T06:45:13;86802.59;;;14.21;47.96
43838;BME280;65998;46.256;7.534;2023-05-01T06:47:39;86808.13;;;14.21;47.99
43838;BME280;65998;46.256;7.534;2023-05-01T06:50:05;86801.19;;;14.22;47.87
43838;BME280;65998;46.256;7.534;2023-05-01T06:52:31;86806.78;;;14.20;47.93
43838;BME280;65998;46.256;7.534;2023-05-01T06:54:57;86811.56;;;14.21;47.87
43838;BME280;65998;46.256;7.534;2023-05-01T06:57:23;86806.78;;;14.20;47.97
43838;BME280;65998;46.256;7.534;2023-05-01T06:59:49;86805.41;;;14.19;47.97
43838;BME280;65998;46.256;7.534;2023-05-01T07:02:14;86804.75;;;14.18;47.96
43838;BME280;65998;46.256;7.534;2023-05-01T07:04:40;86808.22;;;14.17;48.00
43838;BME280;65998;46.256;7.534;2023-05-01T07:07:06;86810.25;;;14.18;47.96
43838;BME280;65998;46.256;7.534;2023-05-01T07:09:32;86811.00;;;14.17;47.92
43838;BME280;65998;46.256;7.534;2023-05-01T07:11:57;86814.44;;;14.17;47.93
43838;BME280;65998;46.256;7.534;2023-05-01T07:14:23;86818.59;;;14.16;47.98
43838;BME280;65998;46.256;7.534;2023-05-01T07:16:49;86811.00;;;14.17;47.90
43838;BME280;65998;46.256;7.534;2023-05-01T07:19:15;86806.88;;;14.16;47.89
43838;BME280;65998;46.256;7.534;2023-05-01T07:21:41;86808.97;;;14.15;48.00
43838;BME280;65998;46.256;7.534;2023-05-01T07:24:06;86813.13;;;14.14;47.76
43838;BME280;65998;46.256;7.534;2023-05-01T07:26:32;86811.72;;;14.15;48.07
43838;BME280;65998;46.256;7.534;2023-05-01T07:28:58;86806.94;;;14.14;47.93
43838;BME280;65998;46.256;7.534;2023-05-01T07:31:24;86812.44;;;14.14;48.03
43838;BME280;65998;46.256;7.534;2023-05-01T07:33:50;86803.50;;;14.13;48.04
43838;BME280;65998;46.256;7.534;2023-05-01T07:36:15;86809.69;;;14.14;48.00
43838;BME280;65998;46.256;7.534;2023-05-01T07:38:41;86804.91;;;14.12;47.99
43838;BME280;65998;46.256;7.534;2023-05-01T07:41:07;86805.56;;;14.13;47.96
43838;BME280;65998;46.256;7.534;2023-05-01T07:43:33;86804.22;;;14.12;48.04
43838;BME280;65998;46.256;7.534;2023-05-01T07:45:59;86809.69;;;14.14;47.99
43838;BME280;65998;46.256;7.534;2023-05-01T07:48:26;86805.56;;;14.13;47.99
43838;BME280;65998;46.256;7.534;2023-05-01T07:50:53;86804.22;;;14.12;48.01
43838;BME280;65998;46.256;7.534;2023-05-01T07:53:19;86804.91;;;14.12;48.00
43838;BME280;65998;46.256;7.534;2023-05-01T07:55:45;86802.19;;;14.10;47.83
43838;BME280;65998;46.256;7.534;2023-05-01T07:58:11;86804.94;;;14.10;48.13
43838;BME280;65998;46.256;7.534;2023-05-01T08:00:37;86803.59;;;14.09;47.84
43838;BME280;65998;46.256;7.534;2023-05-01T08:03:03;86802.91;;;14.09;48.02
43838;BME280;65998;46.256;7.534;2023-05-01T08:05:28;86809.84;;;14.07;47.96
43838;BME280;65998;46.256;7.534;2023-05-01T08:07:54;86798.78;;;14.07;48.04
43838;BME280;65998;46.256;7.534;2023-05-01T08:10:20;86808.50;;;14.06;48.10
43838;BME280;65998;46.256;7.534;2023-05-01T08:12:46;86805.72;;;14.06;47.97
43838;BME280;65998;46.256;7.534;2023-05-01T08:15:11;86813.34;;;14.06;48.09
43838;BME280;65998;46.256;7.534;2023-05-01T08:17:37;86808.50;;;14.06;48.01
43838;BME280;65998;46.256;7.534;2023-05-01T08:20:03;86807.09;;;14.07;48.08
43838;BME280;65998;46.256;7.534;2023-05-01T08:22:30;86809.22;;;14.05;48.08
43838;BME280;65998;46.256;7.534;2023-05-01T08:24:55;86808.53;;;14.04;48.05
43838;BME280;65998;46.256;7.534;2023-05-01T08:27:21;86807.19;;;14.03;48.25
43838;BME280;65998;46.256;7.534;2023-05-01T08:29:47;86805.09;;;14.04;48.08
43838;BME280;65998;46.256;7.534;2023-05-01T08:32:14;86806.41;;;14.07;48.20
43838;BME280;65998;46.256;7.534;2023-05-01T08:34:40;86801.03;;;14.01;48.03
43838;BME280;65998;46.256;7.534;2023-05-01T08:37:06;86806.50;;;14.03;48.02
43838;BME280;65998;46.256;7.534;2023-05-01T08:39:31;86806.56;;;14.01;48.15
43838;BME280;65998;46.256;7.534;2023-05-01T08:41:58;86801.03;;;14.01;48.04
43838;BME280;65998;46.256;7.534;2023-05-01T08:44:27;86809.16;;;14.07;48.02
43838;BME280;65998;46.256;7.534;2023-05-01T08:47:15;86810.53;;;14.08;48.05
43838;BME280;65998;46.256;7.534;2023-05-01T08:49:42;86811.34;;;14.02;48.18
43838;BME280;65998;46.256;7.534;2023-05-01T08:52:12;86809.91;;;14.05;48.04
43838;BME280;65998;46.256;7.534;2023-05-01T08:54:44;86815.41;;;14.05;48.08
43838;BME280;65998;46.256;7.534;2023-05-01T08:57:12;86810.06;;;13.99;48.15
43838;BME280;65998;46.256;7.534;2023-05-01T08:59:39;86809.31;;;14.01;48.24
43838;BME280;65998;46.256;7.534;2023-05-01T09:02:09;86814.78;;;14.03;48.07
43838;BME280;65998;46.256;7.534;2023-05-01T09:04:37;86821.00;;;14.03;48.22
43838;BME280;65998;46.256;7.534;2023-05-01T09:07:03;86814.94;;;13.97;48.17
43838;BME280;65998;46.256;7.534;2023-05-01T09:09:30;86814.91;;;13.99;48.21
43838;BME280;65998;46.256;7.534;2023-05-01T09:12:00;86814.84;;;14.01;48.24
43838;BME280;65998;46.256;7.534;2023-05-01T09:14:30;86826.63;;;13.99;48.35
43838;BME280;65998;46.256;7.534;2023-05-01T09:16:56;86828.09;;;13.96;48.07
43838;BME280;65998;46.256;7.534;2023-05-01T09:19:22;86821.88;;;13.96;48.20
43838;BME280;65998;46.256;7.534;2023-05-01T09:21:48;86828.09;;;13.96;48.10
43838;BME280;65998;46.256;7.534;2023-05-01T09:24:13;86837.78;;;13.95;48.14
43838;BME280;65998;46.256;7.534;2023-05-01T09:26:40;86830.84;;;13.96;48.18
43838;BME280;65998;46.256;7.534;2023-05-01T09:29:06;86834.34;;;13.95;48.27
43838;BME280;65998;46.256;7.534;2023-05-01T09:31:32;86844.66;;;13.96;48.24
43838;BME280;65998;46.256;7.534;2023-05-01T09:34:00;86843.25;;;13.97;48.25
43838;BME280;65998;46.256;7.534;2023-05-01T09:36:28;86842.56;;;13.97;48.42
43838;BME280;65998;46.256;7.534;2023-05-01T09:38:54;86841.94;;;13.94;48.09
43838;BME280;65998;46.256;7.534;2023-05-01T09:41:20;86835.75;;;13.94;48.21
43838;BME280;65998;46.256;7.534;2023-05-01T09:43:56;86837.00;;;13.99;48.17
43838;BME280;65998;46.256;7.534;2023-05-01T09:46:23;86841.22;;;13.96;48.17
43838;BME280;65998;46.256;7.534;2023-05-01T09:48:57;86845.28;;;13.99;48.19
43838;BME280;65998;46.256;7.534;2023-05-01T09:51:31;86844.59;;;13.98;48.10
43838;BME280;65998;46.256;7.534;2023-05-01T09:53:59;86843.31;;;13.95;48.11
43838;BME280;65998;46.256;7.534;2023-05-01T09:56:28;86845.34;;;13.97;48.29
43838;BME280;65998;46.256;7.534;2023-05-01T09:58:55;86841.91;;;13.96;48.07
43838;BME280;65998;46.256;7.534;2023-05-01T10:01:42;86846.63;;;14.00;48.01
43838;BME280;65998;46.256;7.534;2023-05-01T10:04:08;86842.66;;;13.93;48.22
43838;BME280;65998;46.256;7.534;2023-05-01T10:06:35;86848.16;;;13.95;48.20
43838;BME280;65998;46.256;7.534;2023-05-01T10:09:02;86849.50;;;13.96;48.26
43838;BME280;65998;46.256;7.534;2023-05-01T10:11:28;86844.75;;;13.92;48.21
43838;BME280;65998;46.256;7.534;2023-05-01T10:14:07;86843.19;;;13.99;48.08
43838;BME280;65998;46.256;7.534;2023-05-01T10:16:34;86853.72;;;13.93;48.25
43838;BME280;65998;46.256;7.534;2023-05-01T10:19:01;86849.59;;;13.92;48.29
43838;BME280;65998;46.256;7.534;2023-05-01T10:21:27;86851.69;;;13.91;48.21
43838;BME280;65998;46.256;7.534;2023-05-01T10:23:54;86854.41;;;13.93;48.21
43838;BME280;65998;46.256;7.534;2023-05-01T10:26:20;86851.69;;;13.91;48.28
43838;BME280;65998;46.256;7.534;2023-05-01T10:28:47;86855.81;;;13.92;48.15
43838;BME280;65998;46.256;7.534;2023-05-01T10:31:14;86855.81;;;13.92;48.30
43838;BME280;65998;46.256;7.534;2023-05-01T10:33:42;86854.44;;;13.91;48.22
43838;BME280;65998;46.256;7.534;2023-05-01T10:36:11;86857.13;;;13.95;48.23
43838;BME280;65998;46.256;7.534;2023-05-01T10:38:39;86862.69;;;13.93;48.19
43838;BME280;65998;46.256;7.534;2023-05-01T10:41:05;86859.97;;;13.91;48.24
43838;BME280;65998;46.256;7.534;2023-05-01T10:43:31;86859.97;;;13.91;48.23
43838;BME280;65998;46.256;7.534;2023-05-01T10:51:11;86866.06;;;13.96;48.08
43838;BME280;65998;46.256;7.534;2023-05-01T10:53:39;86866.13;;;13.94;48.07
43838;BME280;65998;46.256;7.534;2023-05-01T10:59:02;86864.72;;;13.95;48.13
43838;BME280;65998;46.256;7.534;2023-05-01T11:12:11;86864.09;;;13.92;48.03
43838;BME280;65998;46.256;7.534;2023-05-01T11:15:07;86862.69;;;13.93;48.12
43838;BME280;65998;46.256;7.534;2023-05-01T11:20:09;86859.28;;;13.91;48.20
43838;BME280;65998;46.256;7.534;2023-05-01T11:22:38;86853.13;;;13.88;48.24
43838;BME280;65998;46.256;7.534;2023-05-01T11:25:17;86855.13;;;13.92;48.26
43838;BME280;65998;46.256;7.534;2023-05-01T11:27:51;86869.66;;;13.90;48.31
43838;BME280;65998;46.256;7.534;2023-05-01T11:30:17;86854.59;;;13.85;48.35
43838;BME280;65998;46.256;7.534;2023-05-01T11:32:45;86853.81;;;13.89;48.30
43838;BME280;65998;46.256;7.534;2023-05-01T11:35:19;86851.00;;;13.91;48.24
43838;BME280;65998;46.256;7.534;2023-05-01T11:37:46;86852.50;;;13.86;48.39
43838;BME280;65998;46.256;7.534;2023-05-01T11:40:32;86847.56;;;13.90;48.23
43838;BME280;65998;46.256;7.534;2023-05-01T11:45:26;86851.88;;;13.83;48.36
43838;BME280;65998;46.256;7.534;2023-05-01T11:47:52;86857.41;;;13.83;48.39
43838;BME280;65998;46.256;7.534;2023-05-01T11:50:18;86853.25;;;13.84;48.36
43838;BME280;65998;46.256;7.534;2023-05-01T11:52:50;86849.69;;;13.88;48.24
43838;BME280;65998;46.256;7.534;2023-05-01T11:55:16;86846.34;;;13.83;48.35
43838;BME280;65998;46.256;7.534;2023-05-01T11:57:48;86844.84;;;13.88;48.23
43838;BME280;65998;46.256;7.534;2023-05-01T12:00:16;86851.09;;;13.87;48.26
43838;BME280;65998;46.256;7.534;2023-05-01T12:03:08;86853.09;;;13.90;48.11
43838;BME280;65998;46.256;7.534;2023-05-01T12:05:36;86847.66;;;13.86;48.30
43838;BME280;65998;46.256;7.534;2023-05-01T12:08:13;86848.28;;;13.89;48.24
43838;BME280;65998;46.256;7.534;2023-05-01T12:10:41;86844.84;;;13.88;48.35
43838;BME280;65998;46.256;7.534;2023-05-01T12:13:12;86851.84;;;13.85;48.20
43838;BME280;65998;46.256;7.534;2023-05-01T12:15:41;86851.09;;;13.87;48.21
43838;BME280;65998;46.256;7.534;2023-05-01T12:18:07;86860.84;;;13.84;48.39
43838;BME280;65998;46.256;7.534;2023-05-01T12:23:05;86855.28;;;13.86;48.43
43838;BME280;65998;46.256;7.534;2023-05-01T12:25:32;86863.56;;;13.86;48.32
43838;BME280;65998;46.256;7.534;2023-05-01T12:28:01;86855.28;;;13.86;48.37
43838;BME280;65998;46.256;7.534;2023-05-01T12:30:26;86858.09;;;13.84;48.21
43838;BME280;65998;46.256;7.534;2023-05-01T12:32:52;86864.34;;;13.82;48.38
43838;BME280;65998;46.256;7.534;2023-05-01T12:35:18;86865.69;;;13.83;48.33
43838;BME280;65998;46.256;7.534;2023-05-01T12:37:44;86862.94;;;13.83;48.28
43838;BME280;65998;46.256;7.534;2023-05-01T12:40:13;86869.72;;;13.88;48.28
43838;BME280;65998;46.256;7.534;2023-05-01T12:42:41;86865.00;;;13.83;48.37
43838;BME280;65998;46.256;7.534;2023-05-01T12:45:07;86871.22;;;13.83;48.43
43838;BME280;65998;46.256;7.534;2023-05-01T12:47:37;86867.00;;;13.86;48.37
43838;BME280;65998;46.256;7.534;2023-05-01T12:50:03;86869.13;;;13.84;48.29
43838;BME280;65998;46.256;7.534;2023-05-01T12:52:30;86870.53;;;13.83;48.37
43838;BME280;65998;46.256;7.534;2023-05-01T12:55:04;86858.00;;;13.88;48.26
43838;BME280;65998;46.256;7.534;2023-05-01T12:57:30;86865.75;;;13.81;48.41
43838;BME280;65998;46.256;7.534;2023-05-01T13:00:03;86871.13;;;13.87;48.20
43838;BME280;65998;46.256;7.534;2023-05-01T13:02:31;86867.06;;;13.84;48.42
43838;BME280;65998;46.256;7.534;2023-05-01T13:05:08;86863.56;;;13.86;48.29
43838;BME280;65998;46.256;7.534;2023-05-01T13:07:35;86867.09;;;13.82;48.52
43838;BME280;65998;46.256;7.534;2023-05-01T13:10:02;86869.19;;;13.82;48.35
43838;BME280;65998;46.256;7.534;2023-05-01T13:12:29;86866.41;;;13.82;48.37
43838;BME280;65998;46.256;7.534;2023-05-01T13:14:55;86867.81;;;13.81;48.40
43838;BME280;65998;46.256;7.534;2023-05-01T13:17:26;86862.25;;;13.83;48.45
43838;BME280;65998;46.256;7.534;2023-05-01T13:20:00;86867.78;;;13.83;48.39
43838;BME280;65998;46.256;7.534;2023-05-01T13:24:55;86861.63;;;13.80;48.54
43838;BME280;65998;46.256;7.534;2023-05-01T13:27:21;86864.44;;;13.78;48.40
43838;BME280;65998;46.256;7.534;2023-05-01T13:29:54;86862.25;;;13.83;48.43
43838;BME280;65998;46.256;7.534;2023-05-01T13:32:20;86860.31;;;13.77;48.53
43838;BME280;65998;46.256;7.534;2023-05-01T13:34:46;86860.31;;;13.77;48.47
43838;BME280;65998;46.256;7.534;2023-05-01T13:37:12;86863.75;;;13.78;48.33
43838;BME280;65998;46.256;7.534;2023-05-01T13:39:43;86860.91;;;13.82;48.39
43838;BME280;65998;46.256;7.534;2023-05-01T13:42:21;86868.34;;;13.87;48.36
43838;BME280;65998;46.256;7.534;2023-05-01T13:44:52;86855.22;;;13.88;48.27
43838;BME280;65998;46.256;7.534;2023-05-01T13:47:19;86865.69;;;13.83;48.36